Hinkletown, Pennsylvania
Current Conditions -  °F | °C
As of 5:53 AM on Sunday 23 Nov 2014 (Local Time) from KLNS Reporting Station
Overcast Overcast  
Wind Chill: 32°   Ceiling: 8000
Heat Index: 32°   Visibility: 9mi
Dew Point: 23°   Wind: 0mph
Humidity: 69%   Direction: NA
Pressure: 30.19"   Gusts: NA
Location:  40.1811°N, 76.176°W
Report Text: KLNS 231053Z AUTO 00000KT 9SM OVC080 00/M05 A3019 RMK AO2 SLP228 T00001050
Loading
Personal Weather Stations






























Interactive Weather Map New forecast layout! Learn more

10-Day Weather Forecast

Advertisements
Track Severe Weather on mobile